• Join FlightAware (Why Join?)
  • Login
  • US Flag 
01:17PM EDT


 

Airport Tracker/Info


-or-


 

Live Flight TrackerFlight Track Log ✈ EJA646 ✈ 25-Apr-2013 ✈ KMIA - KSAV

Flight Track Log - Related Links

Times and Time Zones

All times are in EDT time to prevent confusion due to time zone crossing. See the EJA646 flight status page for this flight to view local times or setup timezone preferences in your user account.

Time Position Orientation Groundspeed Altitude Reporting Facility
EDT Latitude Longitude Course Direction KTS MPH feet Rate Location/Type
03:42PM 25.7981 -80.2767 86° East 154 177 1,000  Level Miami Center
03:43PM 25.8014 -80.2214 86° East 227 261 3,400 2,460 Climbing Miami Center
03:44PM 25.8281 -80.1531 67° East 270 311 6,100 2,520 Climbing Miami Center
03:45PM 25.8969 -80.1550 359° North 272 313 8,500 2,460 Climbing Miami Center
03:46PM 25.9647 -80.2031 327° Northwest 272 313 10,700 2,040 Climbing Miami Center
03:47PM 26.0303 -80.2603 322° Northwest 278 320 12,600 1,800 Climbing Miami Center
03:48PM 26.1019 -80.3203 323° Northwest 304 350 14,400 1,740 Climbing Miami Center
03:49PM 26.1736 -80.3800 323° Northwest 318 366 16,100 1,620 Climbing Miami Center
03:50PM 26.2475 -80.4403 324° Northwest 318 366 17,700 1,500 Climbing Miami Center
03:51PM 26.3361 -80.4822 337° Northwest 331 381 19,200 1,440 Climbing Miami Center
03:52PM 26.4167 -80.5219 336° Northwest 346 398 20,600 1,500 Climbing Miami Center
03:53PM 26.5158 -80.5667 338° Northwest 346 398 22,300 1,500 Climbing Miami Center
03:54PM 26.6044 -80.6089 337° Northwest 351 404 23,700 1,500 Climbing Miami Center
03:55PM 26.6931 -80.6536 336° Northwest 351 404 25,300 1,500 Climbing Miami Center
03:56PM 26.7839 -80.6939 338° Northwest 353 406 26,800 1,500 Climbing Miami Center
03:57PM 26.8769 -80.7294 341° North 353 406 28,300 1,500 Climbing Miami Center
03:58PM 26.9681 -80.7606 343° North 348 400 29,800 1,380 Climbing Miami Center
03:59PM 27.0656 -80.7822 349° North 343 395 31,100 1,200 Climbing Miami Center
04:00PM 27.1611 -80.8019 350° North 343 395 32,300 1,200 Climbing Miami Center
04:01PM 27.2567 -80.8239 348° North 349 402 33,500 1,080 Climbing Miami Center
04:02PM 27.3500 -80.8411 351° North 344 396 34,500 720 Climbing Miami Center
04:03PM 27.4456 -80.8583 351° North 349 402 35,000 240 Climbing Miami Center
04:04PM 27.5450 -80.8831 348° North 349 402 35,000  Level Miami Center
04:06PM 27.6616 -80.8971 349° North  Level FlightAware Approximate
04:06PM 27.7464 -80.9253 349° North 359 413 35,000  Level Miami Center
04:07PM 27.8419 -80.9450 350° North 359 413 36,500 1,260 Climbing Miami Center
04:08PM 27.9350 -80.9672 348° North 345 397 37,600 1,020 Climbing Miami Center
04:09PM 28.0264 -80.9847 350° North 339 390 38,600 660 Climbing Miami Center
04:10PM 28.1156 -81.0067 348° North 332 382 39,000 180 Climbing Miami Center
04:11PM 28.2131 -81.0292 349° North 337 388 39,000  Level Miami Center
04:13PM 28.3686 -81.0619 349° North 351 404 39,000  Level Jacksonville Center
04:14PM 28.4606 -81.0864 347° North 363 418 39,000  Level Jacksonville Center
04:15PM 28.5592 -81.1128 347° North 368 423 39,000  Level Jacksonville Center
04:16PM 28.6617 -81.1300 352° North 368 423 39,000  Level Jacksonville Center
04:17PM 28.7622 -81.1567 347° North 368 423 39,000  Level Jacksonville Center
04:18PM 28.8625 -81.1761 350° North 368 423 39,000  Level Jacksonville Center
04:19PM 28.9653 -81.2006 348° North 373 429 39,000  Level Jacksonville Center
04:20PM 29.0656 -81.2225 349° North 373 429 39,000  Level Jacksonville Center
04:21PM 29.1683 -81.2444 349° North 373 429 39,000  Level Jacksonville Center
04:22PM 29.2667 -81.2692 348° North 373 429 39,000  Level Jacksonville Center
04:23PM 29.3692 -81.2889 350° North 373 429 39,000 -180 Level Jacksonville Center
04:24PM 29.4697 -81.3133 348° North 373 429 38,700 -660 Descending Jacksonville Center
04:25PM 29.5786 -81.3381 349° North 368 423 37,700 -900 Descending Jacksonville Center
04:26PM 29.6728 -81.3581 350° North 373 429 37,000 -360 Descending Jacksonville Center
04:27PM 29.7753 -81.3828 348° North 373 429 37,000 -420 Level Jacksonville Center
04:28PM 29.8778 -81.4075 348° North 373 429 36,200 -1,020 Descending Jacksonville Center
04:29PM 29.9783 -81.4275 350° North 373 429 35,000 -1,200 Descending Jacksonville Center
04:30PM 30.0808 -81.4522 348° North 373 429 33,800 -1,020 Descending Jacksonville Center
04:31PM 30.1878 -81.4747 350° North 373 429 33,000 -420 Descending Jacksonville Center
04:32PM 30.2922 -81.4972 349° North 378 435 33,000  Level Jacksonville Center
04:33PM 30.4031 -81.5053 356° North 383 441 33,000 -840 Level Jacksonville Center
04:34PM 30.5136 -81.4964 North 388 447 31,400 -2,460 Descending Jacksonville Center
04:35PM 30.6283 -81.4875 North 394 453 28,100 -3,000 Descending Jacksonville Center
04:36PM 30.7453 -81.4786 North 406 467 25,400 -2,220 Descending Jacksonville Center
04:37PM 30.8558 -81.4697 North 401 461 23,700 -1,560 Descending Jacksonville Center
04:38PM 30.9622 -81.4631 North 395 455 22,400 -1,260 Descending Jacksonville Center
04:39PM 31.0706 -81.4519 North 385 443 21,200 -720 Descending Jacksonville Center
04:40PM 31.1747 -81.4258 12° North 385 443 21,000 -120 Descending Jacksonville Center
04:41PM 31.2722 -81.3808 22° Northeast 375 432 21,000 -360 Level Jacksonville Center
04:42PM 31.3742 -81.3497 15° North 375 432 20,300 -1,020 Descending Jacksonville Center
04:43PM 31.4931 -81.3258 10° North 380 437 19,000 -1,200 Descending Jacksonville Center
04:44PM 31.6011 -81.3047 North 390 449 17,900 -1,080 Descending Jacksonville Center
04:45PM 31.6903 -81.2494 28° Northeast 384 442 16,900 -1,380 Descending Jacksonville Center
04:46PM 31.7831 -81.1597 39° Northeast 397 457 15,200 -1,800 Descending Jacksonville Center
04:47PM 31.8614 -81.0872 38° Northeast 368 423 13,300 -2,400 Descending Jacksonville Center
04:48PM 31.9336 -81.0200 38° Northeast 335 386 10,500 -2,820 Descending Jacksonville Center
04:49PM 31.9975 -80.9647 36° Northeast 298 343 7,700 -1,860 Descending Jacksonville Center
04:51PM 32.0708 -80.8603 50° Northeast 204 235 5,100 -1,200 Descending Jacksonville Center
04:52PM 32.1294 -80.8711 351° North 212 244 4,100 -840 Descending Jacksonville Center
04:53PM 32.1347 -80.9322 276° West 171 197 3,500 -600 Descending Jacksonville Center
04:55PM 32.1296 -81.1287 268° West  Level Estimated
05:02PM 32.1276 -81.2021 268° West  Level Estimated
05:03PM 32.1276 -81.2021 16° North  Level Estimated
05:04PM 32.1276 -81.2021 16° North  Level Estimated
05:05PM 32.1276 -81.2021 16° North  Level Estimated
05:06PM 32.1276 -81.2021 16° North  Level Estimated